Las horas y fechas están en horario UTC.
Sumar 1 hora en el horario de invierno y 2 horas en el de verano.

Informes METAR cercanos

 

LEZL - Sevilla (civ/Mil, Spain
Distance from station: NNE 24km
Actualización: 04/08/2021 20:00
Despejado
Despejado
 Viento del SSO
Viento: SSO 24 km/h
Temperatura: 31°C
Heat Index: 31°C
Rocío: 16°C
Humedad: 40%
Barómetro: 1013 hPa
Resumen: Despejado
Visibility: greater than 10 km
2021/08/04 18:00 LEZL 041800Z 21013KT 180V250 CAVOK 31/16 Q1013 NOSIG
LEMO - Moron (sp-Usafb), Spain
Distance from station: E 38km
Actualización: 04/08/2021 20:00
Despejado
Despejado
 Viento del OSO
Viento: OSO 31 km/h
Temperatura: 31°C
Rocío: 14°C
Humedad: 35%
Barómetro: 1014 hPa
Resumen: Despejado
Visibility: greater than 10 km
2021/08/04 18:00 LEMO 041800Z 25017KT 220V280 CAVOK 31/14 Q1014 NOSIG
LEJR - Jerez (civ/Mil), Spain
Distance from station: S 53km
Actualización: 04/08/2021 20:00
Despejado
Despejado
 Viento del OSO
Viento: OSO 24 km/h
Temperatura: 30°C
Heat Index: 30°C
Rocío: 16°C
Humedad: 43%
Barómetro: 1014 hPa
Resumen: Despejado
Visibility: greater than 10 km
2021/08/04 18:00 LEJR 041800Z 25013KT CAVOK 30/16 Q1014
 
LERT - Rota Naval Stati, Spain
Distance from station: SSO 71km
Actualización: 04/08/2021 19:30
Despejado
Despejado
 Viento del O
Viento: O 33 km/h
Temperatura: 26°C
Rocío: 19°C
Humedad: 65%
Barómetro: 1015 hPa
Resumen: Despejado
Visibility: greater than 10 km
2021/08/04 17:30 LERT 041730Z 26018KT CAVOK 26/19 Q1015 NOSIG
LEBA - Cordoba Airport, Spain
Distance from station: ENE 128km
Actualización: 04/08/2021 19:30
Despejado
Despejado
 Viento del OSO
Viento: OSO 19 km/h
Temperatura: 37°C
Rocío: 10°C
Humedad: 19%
Barómetro: 1012 hPa
Resumen: Despejado
Visibility: greater than 10 km
2021/08/04 17:30 LEBA 041730Z 25010KT 210V280 CAVOK 37/10 Q1012
LXGB - Gibraltar (civ/M, Gibraltar
Distance from station: SSE 137km
Actualización: 04/08/2021 19:50
Despejado
Despejado
 Viento del SSO
Viento: SSO 24 km/h
Temperatura: 28°C
Heat Index: 28°C
Rocío: 16°C
Humedad: 48%
Barómetro: 1013 hPa
Resumen: Despejado
Visibility: greater than 10 km
2021/08/04 17:50 LXGB 041750Z 20013KT CAVOK 28/16 Q1013 NOSIG RMK BLU BLU
 
LEMG - Malaga (civ/Mil), Spain
Distance from station: ESE 150km
Actualización: 04/08/2021 20:00
Despejado
Despejado
 Viento del SE
Viento: SE 9 km/h
Temperatura: 34°C
Rocío: 17°C
Humedad: 36%
Barómetro: 1012 hPa
Resumen: Despejado
Visibility: greater than 10 km
2021/08/04 18:00 LEMG 041800Z 13005KT CAVOK 34/17 Q1012 NOSIG
GMTT - Tangier/Boukhalf, Morocco
Distance from station: S 169km
Actualización: 04/08/2021 19:30
Despejado
Despejado
 Viento del O
Viento: O 11 km/h
Temperatura: 27°C
Heat Index: 28°C
Rocío: 18°C
Humedad: 58%
Barómetro: 1015 hPa
Resumen: Despejado
Visibility: greater than 10 km
2021/08/04 17:30 GMTT 041730Z 26006KT 230V290 CAVOK 27/18 Q1015 NOSIG
LPFR - Faro, Portugal
Distance from station: O 172km
Actualización: 04/08/2021 20:00
Despejado
Despejado
 Viento del ONO
Viento: ONO 31 km/h
Temperatura: 32°C
Heat Index: 33°C
Rocío: 18°C
Humedad: 43%
Barómetro: 1014 hPa
Resumen: Despejado
Visibility: greater than 10 km
2021/08/04 18:00 LPFR 041800Z 30017KT CAVOK 32/18 Q1014
 
LPBJ - Beja (por/Ger-Af, Portugal
Distance from station: ONO 192km
Actualización: 04/08/2021 20:00
Despejado
Despejado
 Viento del NO
Viento: NO 20 km/h
Temperatura: 31°C
Rocío: 15°C
Humedad: 38%
Barómetro: 1017 hPa
Resumen: Despejado
Visibility: greater than 10 km
2021/08/04 18:00 LPBJ 041800Z 32011KT 290V350 CAVOK 31/15 Q1017
LEBZ - Talavera Ab/Bada, Spain
Distance from station: NNO 194km
Actualización: 04/08/2021 19:30
Despejado
Despejado
 Viento del O
Viento: O 24 km/h
Temperatura: 34°C
Rocío: 13°C
Humedad: 28%
Barómetro: 1015 hPa
Resumen: Despejado
Visibility: greater than 10 km
2021/08/04 17:30 LEBZ 041730Z 27013KT CAVOK 34/13 Q1015
LEMD - Madrid/Barajas, Spain
Distance from station: NE 415km
Actualización: 04/08/2021 20:00
Despejado
Despejado
 Viento del ONO
Viento: ONO 17 km/h
Temperatura: 32°C
Rocío: 5°C
Humedad: 18%
Barómetro: 1016 hPa
Resumen: Despejado
Visibility: greater than 10 km
2021/08/04 18:00 LEMD 041800Z 29009KT CAVOK 32/05 Q1016 NOSIG